sensor_id;sensor_type;location;lat;lon;timestamp;P1;durP1;ratioP1;P2;durP2;ratioP2
22861;SDS011;11598;50.652;6.172;2022-08-05T00:05:19;22.17;;;10.48;;
22861;SDS011;11598;50.652;6.172;2022-08-05T00:15:20;20.45;;;10.35;;
22861;SDS011;11598;50.652;6.172;2022-08-05T00:25:20;26.52;;;10.90;;
22861;SDS011;11598;50.652;6.172;2022-08-05T00:35:20;19.27;;;9.90;;
22861;SDS011;11598;50.652;6.172;2022-08-05T00:45:21;21.02;;;9.90;;
22861;SDS011;11598;50.652;6.172;2022-08-05T00:55:21;20.05;;;10.00;;
22861;SDS011;11598;50.652;6.172;2022-08-05T01:05:22;29.33;;;11.18;;
22861;SDS011;11598;50.652;6.172;2022-08-05T01:15:25;23.85;;;11.15;;
22861;SDS011;11598;50.652;6.172;2022-08-05T01:25:42;28.92;;;13.48;;
22861;SDS011;11598;50.652;6.172;2022-08-05T01:35:49;30.50;;;13.50;;
22861;SDS011;11598;50.652;6.172;2022-08-05T01:45:54;34.90;;;16.67;;
22861;SDS011;11598;50.652;6.172;2022-08-05T01:55:57;57.30;;;22.13;;
22861;SDS011;11598;50.652;6.172;2022-08-05T02:06:00;71.00;;;25.33;;
22861;SDS011;11598;50.652;6.172;2022-08-05T02:26:08;139.13;;;34.65;;
22861;SDS011;11598;50.652;6.172;2022-08-05T02:36:10;79.33;;;25.33;;
22861;SDS011;11598;50.652;6.172;2022-08-05T02:46:13;150.00;;;28.45;;
22861;SDS011;11598;50.652;6.172;2022-08-05T02:56:15;66.70;;;24.80;;
22861;SDS011;11598;50.652;6.172;2022-08-05T03:06:16;157.13;;;35.38;;
22861;SDS011;11598;50.652;6.172;2022-08-05T03:16:19;155.73;;;34.53;;
22861;SDS011;11598;50.652;6.172;2022-08-05T03:26:20;96.50;;;27.60;;
22861;SDS011;11598;50.652;6.172;2022-08-05T03:36:20;104.82;;;28.92;;
22861;SDS011;11598;50.652;6.172;2022-08-05T03:46:21;66.03;;;25.13;;
22861;SDS011;11598;50.652;6.172;2022-08-05T03:56:28;99.28;;;30.67;;
22861;SDS011;11598;50.652;6.172;2022-08-05T04:06:37;108.28;;;28.45;;
22861;SDS011;11598;50.652;6.172;2022-08-05T04:16:38;473.17;;;33.78;;
22861;SDS011;11598;50.652;6.172;2022-08-05T04:26:39;1053.68;;;43.22;;
22861;SDS011;11598;50.652;6.172;2022-08-05T04:36:39;1056.38;;;43.65;;
22861;SDS011;11598;50.652;6.172;2022-08-05T04:46:39;1198.53;;;52.88;;
22861;SDS011;11598;50.652;6.172;2022-08-05T04:56:40;779.83;;;48.25;;
22861;SDS011;11598;50.652;6.172;2022-08-05T05:06:41;1075.68;;;52.25;;
22861;SDS011;11598;50.652;6.172;2022-08-05T05:16:42;808.53;;;49.10;;
22861;SDS011;11598;50.652;6.172;2022-08-05T05:26:42;398.10;;;38.95;;
22861;SDS011;11598;50.652;6.172;2022-08-05T05:36:42;229.57;;;30.63;;
22861;SDS011;11598;50.652;6.172;2022-08-05T05:46:43;466.88;;;43.00;;
22861;SDS011;11598;50.652;6.172;2022-08-05T05:56:43;281.13;;;41.75;;
22861;SDS011;11598;50.652;6.172;2022-08-05T06:06:44;546.30;;;43.38;;
22861;SDS011;11598;50.652;6.172;2022-08-05T06:16:44;513.00;;;42.10;;
22861;SDS011;11598;50.652;6.172;2022-08-05T06:26:45;490.67;;;46.40;;
22861;SDS011;11598;50.652;6.172;2022-08-05T06:36:45;384.42;;;47.40;;
22861;SDS011;11598;50.652;6.172;2022-08-05T06:46:45;324.48;;;44.10;;
22861;SDS011;11598;50.652;6.172;2022-08-05T06:56:46;349.13;;;43.28;;
22861;SDS011;11598;50.652;6.172;2022-08-05T07:06:46;268.48;;;39.15;;
22861;SDS011;11598;50.652;6.172;2022-08-05T07:16:47;315.23;;;37.92;;
22861;SDS011;11598;50.652;6.172;2022-08-05T07:26:48;818.15;;;45.72;;
22861;SDS011;11598;50.652;6.172;2022-08-05T07:36:48;550.60;;;40.93;;
22861;SDS011;11598;50.652;6.172;2022-08-05T07:46:49;263.02;;;33.65;;
22861;SDS011;11598;50.652;6.172;2022-08-05T07:56:49;160.52;;;29.02;;
22861;SDS011;11598;50.652;6.172;2022-08-05T08:06:49;106.47;;;22.02;;
22861;SDS011;11598;50.652;6.172;2022-08-05T08:16:50;65.72;;;14.70;;
22861;SDS011;11598;50.652;6.172;2022-08-05T08:26:50;115.30;;;14.52;;
22861;SDS011;11598;50.652;6.172;2022-08-05T08:36:51;53.28;;;16.67;;
22861;SDS011;11598;50.652;6.172;2022-08-05T08:46:51;354.77;;;24.20;;
22861;SDS011;11598;50.652;6.172;2022-08-05T08:56:52;104.03;;;18.67;;
22861;SDS011;11598;50.652;6.172;2022-08-05T09:06:53;234.00;;;19.38;;
22861;SDS011;11598;50.652;6.172;2022-08-05T09:16:53;509.20;;;27.52;;
22861;SDS011;11598;50.652;6.172;2022-08-05T09:26:54;855.17;;;34.92;;
22861;SDS011;11598;50.652;6.172;2022-08-05T09:36:56;262.55;;;18.85;;
22861;SDS011;11598;50.652;6.172;2022-08-05T09:47:05;327.90;;;20.48;;
22861;SDS011;11598;50.652;6.172;2022-08-05T09:57:16;66.35;;;14.55;;
22861;SDS011;11598;50.652;6.172;2022-08-05T10:07:48;59.22;;;12.10;;
22861;SDS011;11598;50.652;6.172;2022-08-05T10:28:08;24.45;;;11.48;;
22861;SDS011;11598;50.652;6.172;2022-08-05T10:38:09;45.97;;;16.57;;
22861;SDS011;11598;50.652;6.172;2022-08-05T10:48:30;37.78;;;18.17;;
22861;SDS011;11598;50.652;6.172;2022-08-05T10:58:34;68.40;;;25.05;;
22861;SDS011;11598;50.652;6.172;2022-08-05T11:08:35;93.70;;;35.10;;
22861;SDS011;11598;50.652;6.172;2022-08-05T11:18:35;43.05;;;24.48;;
22861;SDS011;11598;50.652;6.172;2022-08-05T11:28:37;27.52;;;17.40;;
22861;SDS011;11598;50.652;6.172;2022-08-05T11:48:41;28.27;;;19.93;;
22861;SDS011;11598;50.652;6.172;2022-08-05T11:58:43;29.98;;;18.90;;
22861;SDS011;11598;50.652;6.172;2022-08-05T12:18:47;30.80;;;19.88;;
22861;SDS011;11598;50.652;6.172;2022-08-05T12:28:48;26.23;;;16.13;;
22861;SDS011;11598;50.652;6.172;2022-08-05T12:38:48;29.60;;;21.20;;
22861;SDS011;11598;50.652;6.172;2022-08-05T12:49:08;22.67;;;17.27;;
22861;SDS011;11598;50.652;6.172;2022-08-05T12:59:15;21.83;;;15.70;;
22861;SDS011;11598;50.652;6.172;2022-08-05T13:09:22;26.77;;;16.85;;
22861;SDS011;11598;50.652;6.172;2022-08-05T13:19:25;39.17;;;15.45;;
22861;SDS011;11598;50.652;6.172;2022-08-05T13:29:26;21.27;;;12.65;;
22861;SDS011;11598;50.652;6.172;2022-08-05T13:39:27;27.10;;;16.35;;
22861;SDS011;11598;50.652;6.172;2022-08-05T13:49:28;23.48;;;15.85;;
22861;SDS011;11598;50.652;6.172;2022-08-05T13:59:29;19.58;;;12.80;;
22861;SDS011;11598;50.652;6.172;2022-08-05T14:09:29;19.30;;;12.60;;
22861;SDS011;11598;50.652;6.172;2022-08-05T14:19:30;20.60;;;7.70;;
22861;SDS011;11598;50.652;6.172;2022-08-05T14:29:30;12.35;;;6.30;;
22861;SDS011;11598;50.652;6.172;2022-08-05T14:39:31;13.13;;;5.47;;
22861;SDS011;11598;50.652;6.172;2022-08-05T14:49:32;14.25;;;4.13;;
22861;SDS011;11598;50.652;6.172;2022-08-05T14:59:33;11.38;;;3.90;;
22861;SDS011;11598;50.652;6.172;2022-08-05T15:09:33;10.40;;;3.80;;
22861;SDS011;11598;50.652;6.172;2022-08-05T15:19:33;6.13;;;3.00;;
22861;SDS011;11598;50.652;6.172;2022-08-05T15:29:34;11.48;;;3.92;;
22861;SDS011;11598;50.652;6.172;2022-08-05T15:39:34;6.55;;;3.65;;
22861;SDS011;11598;50.652;6.172;2022-08-05T15:49:34;8.85;;;3.15;;
22861;SDS011;11598;50.652;6.172;2022-08-05T15:59:35;6.93;;;2.80;;
22861;SDS011;11598;50.652;6.172;2022-08-05T16:09:35;5.07;;;1.95;;
22861;SDS011;11598;50.652;6.172;2022-08-05T16:19:36;5.85;;;1.77;;
22861;SDS011;11598;50.652;6.172;2022-08-05T16:29:36;5.32;;;1.55;;
22861;SDS011;11598;50.652;6.172;2022-08-05T16:39:36;6.75;;;1.80;;
22861;SDS011;11598;50.652;6.172;2022-08-05T16:49:37;4.72;;;1.17;;
22861;SDS011;11598;50.652;6.172;2022-08-05T16:59:38;6.55;;;1.30;;
22861;SDS011;11598;50.652;6.172;2022-08-05T17:09:38;8.73;;;1.70;;
22861;SDS011;11598;50.652;6.172;2022-08-05T17:19:39;6.72;;;1.40;;
22861;SDS011;11598;50.652;6.172;2022-08-05T17:29:40;4.72;;;0.90;;
22861;SDS011;11598;50.652;6.172;2022-08-05T17:39:41;5.78;;;1.17;;
22861;SDS011;11598;50.652;6.172;2022-08-05T17:49:41;4.68;;;0.80;;
22861;SDS011;11598;50.652;6.172;2022-08-05T17:59:41;2.63;;;0.80;;
22861;SDS011;11598;50.652;6.172;2022-08-05T18:09:42;2.72;;;0.60;;
22861;SDS011;11598;50.652;6.172;2022-08-05T18:19:42;3.88;;;0.47;;
22861;SDS011;11598;50.652;6.172;2022-08-05T18:29:42;2.70;;;0.45;;
22861;SDS011;11598;50.652;6.172;2022-08-05T18:39:43;2.60;;;0.60;;
22861;SDS011;11598;50.652;6.172;2022-08-05T18:49:43;0.80;;;0.35;;
22861;SDS011;11598;50.652;6.172;2022-08-05T19:00:03;6.25;;;0.70;;
22861;SDS011;11598;50.652;6.172;2022-08-05T19:10:04;4.45;;;0.70;;
22861;SDS011;11598;50.652;6.172;2022-08-05T19:20:05;5.00;;;0.98;;
22861;SDS011;11598;50.652;6.172;2022-08-05T19:30:08;4.50;;;0.82;;
22861;SDS011;11598;50.652;6.172;2022-08-05T19:40:08;2.20;;;0.60;;
22861;SDS011;11598;50.652;6.172;2022-08-05T19:50:09;3.42;;;0.60;;
22861;SDS011;11598;50.652;6.172;2022-08-05T20:00:09;3.08;;;0.75;;
22861;SDS011;11598;50.652;6.172;2022-08-05T20:10:10;5.90;;;0.90;;
22861;SDS011;11598;50.652;6.172;2022-08-05T20:20:11;4.05;;;0.88;;
22861;SDS011;11598;50.652;6.172;2022-08-05T20:30:13;5.35;;;1.10;;
22861;SDS011;11598;50.652;6.172;2022-08-05T20:40:13;3.47;;;1.00;;
22861;SDS011;11598;50.652;6.172;2022-08-05T20:50:14;2.85;;;0.70;;
22861;SDS011;11598;50.652;6.172;2022-08-05T21:00:15;4.45;;;1.05;;
22861;SDS011;11598;50.652;6.172;2022-08-05T21:10:16;4.65;;;1.10;;
22861;SDS011;11598;50.652;6.172;2022-08-05T21:20:16;8.40;;;1.10;;
22861;SDS011;11598;50.652;6.172;2022-08-05T21:30:17;5.65;;;0.80;;
22861;SDS011;11598;50.652;6.172;2022-08-05T21:40:17;6.15;;;1.27;;
22861;SDS011;11598;50.652;6.172;2022-08-05T21:50:17;6.85;;;1.48;;
22861;SDS011;11598;50.652;6.172;2022-08-05T22:00:18;5.10;;;1.30;;
22861;SDS011;11598;50.652;6.172;2022-08-05T22:10:18;5.57;;;1.38;;
22861;SDS011;11598;50.652;6.172;2022-08-05T22:20:19;7.47;;;1.70;;
22861;SDS011;11598;50.652;6.172;2022-08-05T22:30:19;7.32;;;1.45;;
22861;SDS011;11598;50.652;6.172;2022-08-05T22:40:20;6.03;;;1.35;;
22861;SDS011;11598;50.652;6.172;2022-08-05T22:50:20;5.43;;;1.30;;
22861;SDS011;11598;50.652;6.172;2022-08-05T23:00:21;6.43;;;1.10;;
22861;SDS011;11598;50.652;6.172;2022-08-05T23:10:22;4.97;;;1.55;;
22861;SDS011;11598;50.652;6.172;2022-08-05T23:20:22;7.88;;;1.30;;
22861;SDS011;11598;50.652;6.172;2022-08-05T23:30:23;6.28;;;1.33;;
22861;SDS011;11598;50.652;6.172;2022-08-05T23:40:23;6.53;;;1.50;;
22861;SDS011;11598;50.652;6.172;2022-08-05T23:50:23;5.65;;;1.42;;
